sensor_id;sensor_type;location;lat;lon;timestamp;temperature;humidity
210;DHT22;90;48.810;9.120;2022-10-17T00:00:46;16.10;87.80
210;DHT22;90;48.810;9.120;2022-10-17T00:03:13;16.10;87.80
210;DHT22;90;48.810;9.120;2022-10-17T00:05:43;16.10;88.10
210;DHT22;90;48.810;9.120;2022-10-17T00:08:12;15.90;88.40
210;DHT22;90;48.810;9.120;2022-10-17T00:10:39;16.00;88.50
210;DHT22;90;48.810;9.120;2022-10-17T00:13:07;16.00;88.60
210;DHT22;90;48.810;9.120;2022-10-17T00:15:35;15.90;88.90
210;DHT22;90;48.810;9.120;2022-10-17T00:18:02;15.90;88.90
210;DHT22;90;48.810;9.120;2022-10-17T00:20:29;15.90;88.80
210;DHT22;90;48.810;9.120;2022-10-17T00:23:01;15.90;88.30
210;DHT22;90;48.810;9.120;2022-10-17T00:25:28;15.90;88.20
210;DHT22;90;48.810;9.120;2022-10-17T00:27:55;15.90;88.30
210;DHT22;90;48.810;9.120;2022-10-17T00:30:22;15.90;88.20
210;DHT22;90;48.810;9.120;2022-10-17T00:32:50;15.90;87.90
210;DHT22;90;48.810;9.120;2022-10-17T00:35:17;16.00;87.70
210;DHT22;90;48.810;9.120;2022-10-17T00:37:44;16.00;87.40
210;DHT22;90;48.810;9.120;2022-10-17T00:40:12;15.90;87.00
210;DHT22;90;48.810;9.120;2022-10-17T00:42:39;15.70;87.50
210;DHT22;90;48.810;9.120;2022-10-17T00:45:15;15.70;88.00
210;DHT22;90;48.810;9.120;2022-10-17T00:47:46;15.70;88.00
210;DHT22;90;48.810;9.120;2022-10-17T00:50:14;15.80;87.20
210;DHT22;90;48.810;9.120;2022-10-17T00:52:42;15.70;87.60
210;DHT22;90;48.810;9.120;2022-10-17T00:55:15;15.60;88.20
210;DHT22;90;48.810;9.120;2022-10-17T00:57:43;15.60;88.60
210;DHT22;90;48.810;9.120;2022-10-17T01:00:12;15.70;88.50
210;DHT22;90;48.810;9.120;2022-10-17T01:02:40;15.70;88.30
210;DHT22;90;48.810;9.120;2022-10-17T01:05:08;15.70;88.00
210;DHT22;90;48.810;9.120;2022-10-17T01:07:35;15.60;87.60
210;DHT22;90;48.810;9.120;2022-10-17T01:10:05;15.60;87.60
210;DHT22;90;48.810;9.120;2022-10-17T01:12:40;15.50;87.90
210;DHT22;90;48.810;9.120;2022-10-17T01:15:13;15.50;88.30
210;DHT22;90;48.810;9.120;2022-10-17T01:17:54;15.50;88.50
210;DHT22;90;48.810;9.120;2022-10-17T01:21:05;15.50;88.50
210;DHT22;90;48.810;9.120;2022-10-17T01:24:01;15.50;88.30
210;DHT22;90;48.810;9.120;2022-10-17T01:26:43;15.40;88.90
210;DHT22;90;48.810;9.120;2022-10-17T01:32:17;15.30;89.20
210;DHT22;90;48.810;9.120;2022-10-17T01:34:53;15.30;89.40
210;DHT22;90;48.810;9.120;2022-10-17T01:37:26;15.30;89.30
210;DHT22;90;48.810;9.120;2022-10-17T01:40:02;15.40;88.90
210;DHT22;90;48.810;9.120;2022-10-17T01:42:36;15.30;88.90
210;DHT22;90;48.810;9.120;2022-10-17T01:45:10;15.30;88.90
210;DHT22;90;48.810;9.120;2022-10-17T01:47:41;15.30;89.00
210;DHT22;90;48.810;9.120;2022-10-17T01:50:14;15.30;89.10
210;DHT22;90;48.810;9.120;2022-10-17T01:52:46;15.30;89.30
210;DHT22;90;48.810;9.120;2022-10-17T01:55:18;15.30;89.00
210;DHT22;90;48.810;9.120;2022-10-17T01:57:50;15.30;88.70
210;DHT22;90;48.810;9.120;2022-10-17T02:00:20;15.40;88.70
210;DHT22;90;48.810;9.120;2022-10-17T02:02:52;15.30;88.10
210;DHT22;90;48.810;9.120;2022-10-17T02:05:25;15.40;87.90
210;DHT22;90;48.810;9.120;2022-10-17T02:07:56;15.30;88.00
210;DHT22;90;48.810;9.120;2022-10-17T02:10:34;15.30;88.30
210;DHT22;90;48.810;9.120;2022-10-17T02:13:08;15.20;88.60
210;DHT22;90;48.810;9.120;2022-10-17T02:16:04;15.10;88.50
210;DHT22;90;48.810;9.120;2022-10-17T02:18:52;15.20;88.60
210;DHT22;90;48.810;9.120;2022-10-17T02:21:29;15.20;88.40
210;DHT22;90;48.810;9.120;2022-10-17T02:24:04;15.10;88.40
210;DHT22;90;48.810;9.120;2022-10-17T02:26:38;15.00;88.90
210;DHT22;90;48.810;9.120;2022-10-17T02:29:09;15.00;89.10
210;DHT22;90;48.810;9.120;2022-10-17T02:31:42;14.90;89.60
210;DHT22;90;48.810;9.120;2022-10-17T02:34:16;14.90;89.30
210;DHT22;90;48.810;9.120;2022-10-17T02:36:48;14.90;89.30
210;DHT22;90;48.810;9.120;2022-10-17T02:39:16;14.90;89.40
210;DHT22;90;48.810;9.120;2022-10-17T02:41:45;15.00;89.40
210;DHT22;90;48.810;9.120;2022-10-17T02:44:14;15.00;89.20
210;DHT22;90;48.810;9.120;2022-10-17T02:46:44;15.00;88.90
210;DHT22;90;48.810;9.120;2022-10-17T02:49:17;14.90;89.00
210;DHT22;90;48.810;9.120;2022-10-17T02:51:49;15.00;89.10
210;DHT22;90;48.810;9.120;2022-10-17T02:54:23;15.00;89.00
210;DHT22;90;48.810;9.120;2022-10-17T02:56:56;14.90;89.10
210;DHT22;90;48.810;9.120;2022-10-17T02:59:28;14.90;89.10
210;DHT22;90;48.810;9.120;2022-10-17T03:02:02;14.90;89.10
210;DHT22;90;48.810;9.120;2022-10-17T03:04:31;14.90;89.10
210;DHT22;90;48.810;9.120;2022-10-17T03:06:58;14.90;89.20
210;DHT22;90;48.810;9.120;2022-10-17T03:09:26;14.90;89.30
210;DHT22;90;48.810;9.120;2022-10-17T03:11:56;14.80;89.30
210;DHT22;90;48.810;9.120;2022-10-17T03:14:26;14.90;89.20
210;DHT22;90;48.810;9.120;2022-10-17T03:16:53;14.90;89.10
210;DHT22;90;48.810;9.120;2022-10-17T03:19:20;14.90;89.20
210;DHT22;90;48.810;9.120;2022-10-17T03:21:48;14.90;89.20
210;DHT22;90;48.810;9.120;2022-10-17T03:24:16;15.00;89.10
210;DHT22;90;48.810;9.120;2022-10-17T03:26:43;14.90;88.80
210;DHT22;90;48.810;9.120;2022-10-17T03:29:10;14.80;88.70
210;DHT22;90;48.810;9.120;2022-10-17T03:31:37;14.80;89.10
210;DHT22;90;48.810;9.120;2022-10-17T03:34:04;14.70;89.00
210;DHT22;90;48.810;9.120;2022-10-17T03:36:31;14.70;89.40
210;DHT22;90;48.810;9.120;2022-10-17T03:39:00;14.70;89.20
210;DHT22;90;48.810;9.120;2022-10-17T03:41:27;14.80;89.00
210;DHT22;90;48.810;9.120;2022-10-17T03:43:54;14.80;88.90
210;DHT22;90;48.810;9.120;2022-10-17T03:46:21;14.80;89.10
210;DHT22;90;48.810;9.120;2022-10-17T03:48:48;14.80;89.20
210;DHT22;90;48.810;9.120;2022-10-17T03:51:15;14.80;89.50
210;DHT22;90;48.810;9.120;2022-10-17T03:53:42;14.90;91.10
210;DHT22;90;48.810;9.120;2022-10-17T03:56:13;14.80;89.30
210;DHT22;90;48.810;9.120;2022-10-17T03:58:41;14.80;89.40
210;DHT22;90;48.810;9.120;2022-10-17T04:01:10;14.80;89.40
210;DHT22;90;48.810;9.120;2022-10-17T04:03:38;14.80;89.40
210;DHT22;90;48.810;9.120;2022-10-17T04:06:07;14.80;89.60
210;DHT22;90;48.810;9.120;2022-10-17T04:08:35;14.80;89.60
210;DHT22;90;48.810;9.120;2022-10-17T04:11:05;14.80;89.30
210;DHT22;90;48.810;9.120;2022-10-17T04:13:35;14.80;89.40
210;DHT22;90;48.810;9.120;2022-10-17T04:16:04;14.70;89.50
210;DHT22;90;48.810;9.120;2022-10-17T04:18:32;14.80;89.50
210;DHT22;90;48.810;9.120;2022-10-17T04:21:00;14.80;89.00
210;DHT22;90;48.810;9.120;2022-10-17T04:23:28;14.70;88.90
210;DHT22;90;48.810;9.120;2022-10-17T04:25:56;14.70;89.10
210;DHT22;90;48.810;9.120;2022-10-17T04:28:23;14.70;89.00
210;DHT22;90;48.810;9.120;2022-10-17T04:30:56;14.80;88.70
210;DHT22;90;48.810;9.120;2022-10-17T04:33:24;14.80;88.80
210;DHT22;90;48.810;9.120;2022-10-17T04:35:56;14.70;89.20
210;DHT22;90;48.810;9.120;2022-10-17T04:38:23;14.80;89.30
210;DHT22;90;48.810;9.120;2022-10-17T04:40:50;14.70;89.30
210;DHT22;90;48.810;9.120;2022-10-17T04:43:17;14.70;89.30
210;DHT22;90;48.810;9.120;2022-10-17T04:45:45;14.60;89.20
210;DHT22;90;48.810;9.120;2022-10-17T04:48:13;14.60;89.20
210;DHT22;90;48.810;9.120;2022-10-17T04:50:40;14.60;89.00
210;DHT22;90;48.810;9.120;2022-10-17T04:53:08;14.60;88.90
210;DHT22;90;48.810;9.120;2022-10-17T04:55:38;14.60;88.90
210;DHT22;90;48.810;9.120;2022-10-17T04:58:05;14.60;89.00
210;DHT22;90;48.810;9.120;2022-10-17T05:00:32;14.60;89.00
210;DHT22;90;48.810;9.120;2022-10-17T05:02:59;14.50;89.50
210;DHT22;90;48.810;9.120;2022-10-17T05:05:27;14.50;89.70
210;DHT22;90;48.810;9.120;2022-10-17T05:07:54;14.50;90.00
210;DHT22;90;48.810;9.120;2022-10-17T05:10:22;14.50;89.80
210;DHT22;90;48.810;9.120;2022-10-17T05:12:50;14.50;89.70
210;DHT22;90;48.810;9.120;2022-10-17T05:15:17;14.50;90.10
210;DHT22;90;48.810;9.120;2022-10-17T05:17:44;14.60;90.00
210;DHT22;90;48.810;9.120;2022-10-17T05:20:12;14.60;90.10
210;DHT22;90;48.810;9.120;2022-10-17T05:22:43;14.60;90.20
210;DHT22;90;48.810;9.120;2022-10-17T05:25:10;14.60;90.20
210;DHT22;90;48.810;9.120;2022-10-17T05:27:37;14.60;90.20
210;DHT22;90;48.810;9.120;2022-10-17T05:30:05;14.60;90.10
210;DHT22;90;48.810;9.120;2022-10-17T05:32:32;14.70;90.00
210;DHT22;90;48.810;9.120;2022-10-17T05:35:00;14.60;90.00
210;DHT22;90;48.810;9.120;2022-10-17T05:37:28;14.60;89.90
210;DHT22;90;48.810;9.120;2022-10-17T05:39:57;14.70;89.70
210;DHT22;90;48.810;9.120;2022-10-17T05:42:24;14.70;89.70
210;DHT22;90;48.810;9.120;2022-10-17T05:44:52;14.80;89.60
210;DHT22;90;48.810;9.120;2022-10-17T05:47:19;14.80;88.90
210;DHT22;90;48.810;9.120;2022-10-17T05:49:46;14.80;90.00
210;DHT22;90;48.810;9.120;2022-10-17T05:52:13;14.80;89.30
210;DHT22;90;48.810;9.120;2022-10-17T05:54:40;14.80;88.50
210;DHT22;90;48.810;9.120;2022-10-17T05:57:09;14.90;88.30
210;DHT22;90;48.810;9.120;2022-10-17T05:59:36;14.90;88.10
210;DHT22;90;48.810;9.120;2022-10-17T06:02:03;14.80;88.20
210;DHT22;90;48.810;9.120;2022-10-17T06:04:30;14.70;88.70
210;DHT22;90;48.810;9.120;2022-10-17T06:06:58;14.70;88.70
210;DHT22;90;48.810;9.120;2022-10-17T06:09:25;14.70;88.60
210;DHT22;90;48.810;9.120;2022-10-17T06:11:52;14.70;88.50
210;DHT22;90;48.810;9.120;2022-10-17T06:14:20;14.70;88.50
210;DHT22;90;48.810;9.120;2022-10-17T06:16:48;14.70;88.80
210;DHT22;90;48.810;9.120;2022-10-17T06:19:15;14.70;88.70
210;DHT22;90;48.810;9.120;2022-10-17T06:21:42;14.70;88.50
210;DHT22;90;48.810;9.120;2022-10-17T06:24:09;14.70;88.50
210;DHT22;90;48.810;9.120;2022-10-17T06:26:36;14.70;88.60
210;DHT22;90;48.810;9.120;2022-10-17T06:29:03;14.80;88.50
210;DHT22;90;48.810;9.120;2022-10-17T06:31:32;14.90;88.20
210;DHT22;90;48.810;9.120;2022-10-17T06:33:59;14.90;88.10
210;DHT22;90;48.810;9.120;2022-10-17T06:36:26;14.90;88.10
210;DHT22;90;48.810;9.120;2022-10-17T06:38:53;15.00;88.30
210;DHT22;90;48.810;9.120;2022-10-17T06:41:21;15.10;87.90
210;DHT22;90;48.810;9.120;2022-10-17T06:43:50;15.20;87.80
210;DHT22;90;48.810;9.120;2022-10-17T06:46:18;15.30;87.60
210;DHT22;90;48.810;9.120;2022-10-17T06:48:47;15.40;87.30
210;DHT22;90;48.810;9.120;2022-10-17T06:51:14;15.40;87.10
210;DHT22;90;48.810;9.120;2022-10-17T06:53:41;15.50;87.10
210;DHT22;90;48.810;9.120;2022-10-17T06:56:09;15.60;87.20
210;DHT22;90;48.810;9.120;2022-10-17T06:58:38;15.70;86.80
210;DHT22;90;48.810;9.120;2022-10-17T07:01:07;15.70;86.80
210;DHT22;90;48.810;9.120;2022-10-17T07:03:35;15.70;86.70
210;DHT22;90;48.810;9.120;2022-10-17T07:06:04;15.80;86.60
210;DHT22;90;48.810;9.120;2022-10-17T07:08:31;15.80;86.80
210;DHT22;90;48.810;9.120;2022-10-17T07:10:58;15.80;87.10
210;DHT22;90;48.810;9.120;2022-10-17T07:13:34;15.90;86.70
210;DHT22;90;48.810;9.120;2022-10-17T07:16:01;16.00;86.40
210;DHT22;90;48.810;9.120;2022-10-17T07:18:28;16.10;85.90
210;DHT22;90;48.810;9.120;2022-10-17T07:20:55;16.20;85.80
210;DHT22;90;48.810;9.120;2022-10-17T07:23:24;16.30;85.70
210;DHT22;90;48.810;9.120;2022-10-17T07:25:51;16.30;85.90
210;DHT22;90;48.810;9.120;2022-10-17T07:28:18;16.30;85.80
210;DHT22;90;48.810;9.120;2022-10-17T07:30:46;16.40;85.60
210;DHT22;90;48.810;9.120;2022-10-17T07:33:13;16.40;85.60
210;DHT22;90;48.810;9.120;2022-10-17T07:35:40;16.40;85.30
210;DHT22;90;48.810;9.120;2022-10-17T07:38:07;16.50;85.30
210;DHT22;90;48.810;9.120;2022-10-17T07:40:35;16.50;85.20
210;DHT22;90;48.810;9.120;2022-10-17T07:43:03;16.50;85.40
210;DHT22;90;48.810;9.120;2022-10-17T07:45:30;16.60;85.60
210;DHT22;90;48.810;9.120;2022-10-17T07:47:57;16.70;85.70
210;DHT22;90;48.810;9.120;2022-10-17T07:50:24;16.70;85.60
210;DHT22;90;48.810;9.120;2022-10-17T07:52:51;16.80;85.40
210;DHT22;90;48.810;9.120;2022-10-17T07:55:19;17.00;85.30
210;DHT22;90;48.810;9.120;2022-10-17T07:57:47;17.10;84.50
210;DHT22;90;48.810;9.120;2022-10-17T08:00:14;17.20;84.70
210;DHT22;90;48.810;9.120;2022-10-17T08:02:47;17.20;84.40
210;DHT22;90;48.810;9.120;2022-10-17T08:05:14;17.40;83.70
210;DHT22;90;48.810;9.120;2022-10-17T08:07:41;17.50;83.40
210;DHT22;90;48.810;9.120;2022-10-17T08:10:10;17.50;83.90
210;DHT22;90;48.810;9.120;2022-10-17T08:12:38;17.60;84.00
210;DHT22;90;48.810;9.120;2022-10-17T08:15:08;17.60;84.20
210;DHT22;90;48.810;9.120;2022-10-17T08:17:35;17.70;84.40
210;DHT22;90;48.810;9.120;2022-10-17T08:20:04;17.80;84.30
210;DHT22;90;48.810;9.120;2022-10-17T08:22:31;17.90;84.40
210;DHT22;90;48.810;9.120;2022-10-17T08:24:59;17.90;84.40
210;DHT22;90;48.810;9.120;2022-10-17T08:27:26;18.00;84.40
210;DHT22;90;48.810;9.120;2022-10-17T08:29:53;18.10;84.20
210;DHT22;90;48.810;9.120;2022-10-17T08:32:23;18.20;83.50
210;DHT22;90;48.810;9.120;2022-10-17T08:34:51;18.20;83.00
210;DHT22;90;48.810;9.120;2022-10-17T08:37:18;18.30;82.30
210;DHT22;90;48.810;9.120;2022-10-17T08:39:45;18.30;82.70
210;DHT22;90;48.810;9.120;2022-10-17T08:42:27;18.50;82.50
210;DHT22;90;48.810;9.120;2022-10-17T08:45:04;18.60;82.30
210;DHT22;90;48.810;9.120;2022-10-17T08:47:37;18.70;80.00
210;DHT22;90;48.810;9.120;2022-10-17T08:50:10;18.80;77.90
210;DHT22;90;48.810;9.120;2022-10-17T08:52:40;18.80;77.10
210;DHT22;90;48.810;9.120;2022-10-17T08:55:14;18.90;76.20
210;DHT22;90;48.810;9.120;2022-10-17T08:57:42;19.00;76.70
210;DHT22;90;48.810;9.120;2022-10-17T09:00:15;19.10;77.80
210;DHT22;90;48.810;9.120;2022-10-17T09:02:53;19.30;78.00
210;DHT22;90;48.810;9.120;2022-10-17T09:05:40;19.40;76.30
210;DHT22;90;48.810;9.120;2022-10-17T09:08:22;19.50;75.50
210;DHT22;90;48.810;9.120;2022-10-17T09:10:55;19.60;74.60
210;DHT22;90;48.810;9.120;2022-10-17T09:13:40;19.70;75.00
210;DHT22;90;48.810;9.120;2022-10-17T09:16:31;19.80;75.10
210;DHT22;90;48.810;9.120;2022-10-17T09:19:07;19.90;74.50
210;DHT22;90;48.810;9.120;2022-10-17T09:21:41;20.00;74.40
210;DHT22;90;48.810;9.120;2022-10-17T09:24:12;20.00;74.60
210;DHT22;90;48.810;9.120;2022-10-17T09:26:41;20.00;74.70
210;DHT22;90;48.810;9.120;2022-10-17T09:29:17;20.00;75.10
210;DHT22;90;48.810;9.120;2022-10-17T09:31:48;20.00;75.70
210;DHT22;90;48.810;9.120;2022-10-17T09:34:18;20.00;76.10
210;DHT22;90;48.810;9.120;2022-10-17T09:36:45;20.10;76.20
210;DHT22;90;48.810;9.120;2022-10-17T09:39:16;20.10;76.80
210;DHT22;90;48.810;9.120;2022-10-17T09:41:48;20.10;77.60
210;DHT22;90;48.810;9.120;2022-10-17T09:44:19;20.20;77.10
210;DHT22;90;48.810;9.120;2022-10-17T09:47:13;20.20;76.30
210;DHT22;90;48.810;9.120;2022-10-17T09:49:44;20.30;77.20
210;DHT22;90;48.810;9.120;2022-10-17T09:52:16;20.40;75.80
210;DHT22;90;48.810;9.120;2022-10-17T09:54:46;20.50;75.50
210;DHT22;90;48.810;9.120;2022-10-17T09:57:20;20.60;75.20
210;DHT22;90;48.810;9.120;2022-10-17T09:59:56;20.60;72.20
210;DHT22;90;48.810;9.120;2022-10-17T10:02:25;20.70;72.60
210;DHT22;90;48.810;9.120;2022-10-17T10:05:03;20.90;69.70
210;DHT22;90;48.810;9.120;2022-10-17T10:07:32;21.10;68.60
210;DHT22;90;48.810;9.120;2022-10-17T10:10:01;21.00;68.60
210;DHT22;90;48.810;9.120;2022-10-17T10:12:30;21.10;68.00
210;DHT22;90;48.810;9.120;2022-10-17T10:14:58;21.20;68.80
210;DHT22;90;48.810;9.120;2022-10-17T10:17:34;21.10;67.50
210;DHT22;90;48.810;9.120;2022-10-17T10:20:24;21.10;67.60
210;DHT22;90;48.810;9.120;2022-10-17T10:23:10;21.30;66.80
210;DHT22;90;48.810;9.120;2022-10-17T10:25:49;21.40;66.40
210;DHT22;90;48.810;9.120;2022-10-17T10:28:18;21.40;65.60
210;DHT22;90;48.810;9.120;2022-10-17T10:30:48;21.50;65.30
210;DHT22;90;48.810;9.120;2022-10-17T10:33:18;21.60;65.00
210;DHT22;90;48.810;9.120;2022-10-17T10:35:54;21.70;64.30
210;DHT22;90;48.810;9.120;2022-10-17T10:38:22;21.80;64.30
210;DHT22;90;48.810;9.120;2022-10-17T10:40:51;21.90;63.40
210;DHT22;90;48.810;9.120;2022-10-17T10:43:26;22.00;61.90
210;DHT22;90;48.810;9.120;2022-10-17T10:45:56;22.00;62.10
210;DHT22;90;48.810;9.120;2022-10-17T10:48:25;22.10;62.90
210;DHT22;90;48.810;9.120;2022-10-17T10:50:56;22.10;63.50
210;DHT22;90;48.810;9.120;2022-10-17T10:53:35;22.10;64.00
210;DHT22;90;48.810;9.120;2022-10-17T10:56:14;22.10;62.90
210;DHT22;90;48.810;9.120;2022-10-17T10:58:50;22.00;63.10
210;DHT22;90;48.810;9.120;2022-10-17T11:01:24;22.10;62.30
210;DHT22;90;48.810;9.120;2022-10-17T11:06:54;22.30;61.20
210;DHT22;90;48.810;9.120;2022-10-17T11:09:33;22.40;62.00
210;DHT22;90;48.810;9.120;2022-10-17T11:12:13;22.60;62.50
210;DHT22;90;48.810;9.120;2022-10-17T11:14:48;22.80;63.70
210;DHT22;90;48.810;9.120;2022-10-17T11:17:24;23.00;63.60
210;DHT22;90;48.810;9.120;2022-10-17T11:20:02;23.10;61.30
210;DHT22;90;48.810;9.120;2022-10-17T11:22:35;23.20;61.90
210;DHT22;90;48.810;9.120;2022-10-17T11:25:05;23.40;64.20
210;DHT22;90;48.810;9.120;2022-10-17T11:27:36;23.50;63.50
210;DHT22;90;48.810;9.120;2022-10-17T11:30:04;23.60;62.60
210;DHT22;90;48.810;9.120;2022-10-17T11:32:36;23.60;58.50
210;DHT22;90;48.810;9.120;2022-10-17T11:35:15;23.70;60.10
210;DHT22;90;48.810;9.120;2022-10-17T11:37:48;23.80;59.10
210;DHT22;90;48.810;9.120;2022-10-17T11:40:20;23.90;59.20
210;DHT22;90;48.810;9.120;2022-10-17T11:42:54;23.90;57.60
210;DHT22;90;48.810;9.120;2022-10-17T11:45:25;24.00;56.00
210;DHT22;90;48.810;9.120;2022-10-17T11:47:59;24.00;56.20
210;DHT22;90;48.810;9.120;2022-10-17T11:50:30;24.00;57.60
210;DHT22;90;48.810;9.120;2022-10-17T11:53:02;24.10;55.10
210;DHT22;90;48.810;9.120;2022-10-17T11:55:31;24.20;53.30
210;DHT22;90;48.810;9.120;2022-10-17T11:58:08;24.20;53.10
210;DHT22;90;48.810;9.120;2022-10-17T12:00:50;24.20;54.40
210;DHT22;90;48.810;9.120;2022-10-17T12:03:32;24.30;55.00
210;DHT22;90;48.810;9.120;2022-10-17T12:06:08;24.40;54.00
210;DHT22;90;48.810;9.120;2022-10-17T12:08:48;24.50;53.60
210;DHT22;90;48.810;9.120;2022-10-17T12:11:27;24.50;53.30
210;DHT22;90;48.810;9.120;2022-10-17T12:13:55;24.50;54.40
210;DHT22;90;48.810;9.120;2022-10-17T12:16:49;24.60;54.80
210;DHT22;90;48.810;9.120;2022-10-17T12:19:30;24.70;54.90
210;DHT22;90;48.810;9.120;2022-10-17T12:22:03;24.80;52.30
210;DHT22;90;48.810;9.120;2022-10-17T12:24:41;24.80;52.50
210;DHT22;90;48.810;9.120;2022-10-17T12:27:39;24.80;53.60
210;DHT22;90;48.810;9.120;2022-10-17T12:30:23;24.90;53.30
210;DHT22;90;48.810;9.120;2022-10-17T12:33:00;24.90;53.30
210;DHT22;90;48.810;9.120;2022-10-17T12:35:30;24.90;53.80
210;DHT22;90;48.810;9.120;2022-10-17T12:38:27;25.00;54.50
210;DHT22;90;48.810;9.120;2022-10-17T12:41:00;25.10;54.10
210;DHT22;90;48.810;9.120;2022-10-17T12:43:46;25.20;53.70
210;DHT22;90;48.810;9.120;2022-10-17T12:46:41;25.20;54.00
210;DHT22;90;48.810;9.120;2022-10-17T12:49:37;25.30;53.30
210;DHT22;90;48.810;9.120;2022-10-17T12:55:12;25.40;54.00
210;DHT22;90;48.810;9.120;2022-10-17T12:57:47;25.40;53.50
210;DHT22;90;48.810;9.120;2022-10-17T13:00:26;25.30;61.90
210;DHT22;90;48.810;9.120;2022-10-17T13:03:00;25.20;64.80
210;DHT22;90;48.810;9.120;2022-10-17T13:05:30;25.20;63.70
210;DHT22;90;48.810;9.120;2022-10-17T13:07:59;24.90;63.30
210;DHT22;90;48.810;9.120;2022-10-17T13:10:29;24.90;64.00
210;DHT22;90;48.810;9.120;2022-10-17T13:13:05;25.00;62.50
210;DHT22;90;48.810;9.120;2022-10-17T13:15:32;25.00;63.00
210;DHT22;90;48.810;9.120;2022-10-17T13:18:00;25.00;61.70
210;DHT22;90;48.810;9.120;2022-10-17T13:20:29;25.00;61.50
210;DHT22;90;48.810;9.120;2022-10-17T13:22:56;25.00;60.50
210;DHT22;90;48.810;9.120;2022-10-17T13:25:25;24.90;60.70
210;DHT22;90;48.810;9.120;2022-10-17T13:28:05;24.90;60.70
210;DHT22;90;48.810;9.120;2022-10-17T13:30:35;24.90;60.40
210;DHT22;90;48.810;9.120;2022-10-17T13:33:03;25.00;60.30
210;DHT22;90;48.810;9.120;2022-10-17T13:35:42;24.90;60.20
210;DHT22;90;48.810;9.120;2022-10-17T13:38:11;24.90;60.40
210;DHT22;90;48.810;9.120;2022-10-17T13:40:41;24.90;60.70
210;DHT22;90;48.810;9.120;2022-10-17T13:43:15;24.80;60.10
210;DHT22;90;48.810;9.120;2022-10-17T13:45:46;24.80;60.10
210;DHT22;90;48.810;9.120;2022-10-17T13:48:19;24.80;58.00
210;DHT22;90;48.810;9.120;2022-10-17T13:50:50;24.80;59.00
210;DHT22;90;48.810;9.120;2022-10-17T13:53:24;24.90;59.90
210;DHT22;90;48.810;9.120;2022-10-17T13:55:53;24.90;59.60
210;DHT22;90;48.810;9.120;2022-10-17T13:58:22;25.00;58.70
210;DHT22;90;48.810;9.120;2022-10-17T14:00:50;24.90;59.00
210;DHT22;90;48.810;9.120;2022-10-17T14:03:18;24.90;59.00
210;DHT22;90;48.810;9.120;2022-10-17T14:06:07;24.80;57.30
210;DHT22;90;48.810;9.120;2022-10-17T14:08:38;24.80;57.40
210;DHT22;90;48.810;9.120;2022-10-17T14:11:20;24.90;58.00
210;DHT22;90;48.810;9.120;2022-10-17T14:13:51;25.00;57.00
210;DHT22;90;48.810;9.120;2022-10-17T14:16:20;25.10;56.50
210;DHT22;90;48.810;9.120;2022-10-17T14:18:50;25.20;57.40
210;DHT22;90;48.810;9.120;2022-10-17T14:21:20;25.30;57.20
210;DHT22;90;48.810;9.120;2022-10-17T14:23:50;25.30;56.10
210;DHT22;90;48.810;9.120;2022-10-17T14:26:19;25.30;56.50
210;DHT22;90;48.810;9.120;2022-10-17T14:28:49;25.40;57.00
210;DHT22;90;48.810;9.120;2022-10-17T14:31:21;25.40;56.50
210;DHT22;90;48.810;9.120;2022-10-17T14:33:51;25.30;56.80
210;DHT22;90;48.810;9.120;2022-10-17T14:36:19;25.30;55.60
210;DHT22;90;48.810;9.120;2022-10-17T14:38:47;25.30;55.70
210;DHT22;90;48.810;9.120;2022-10-17T14:41:21;25.30;55.80
210;DHT22;90;48.810;9.120;2022-10-17T14:43:56;25.30;57.00
210;DHT22;90;48.810;9.120;2022-10-17T14:46:24;25.30;56.50
210;DHT22;90;48.810;9.120;2022-10-17T14:48:54;25.30;56.60
210;DHT22;90;48.810;9.120;2022-10-17T14:51:22;25.40;57.00
210;DHT22;90;48.810;9.120;2022-10-17T14:54:02;25.40;57.10
210;DHT22;90;48.810;9.120;2022-10-17T14:56:35;25.40;56.90
210;DHT22;90;48.810;9.120;2022-10-17T14:59:04;25.50;56.60
210;DHT22;90;48.810;9.120;2022-10-17T15:01:33;25.50;56.00
210;DHT22;90;48.810;9.120;2022-10-17T15:04:00;25.40;55.90
210;DHT22;90;48.810;9.120;2022-10-17T15:06:30;25.50;55.90
210;DHT22;90;48.810;9.120;2022-10-17T15:08:58;25.50;56.10
210;DHT22;90;48.810;9.120;2022-10-17T15:11:25;25.50;55.80
210;DHT22;90;48.810;9.120;2022-10-17T15:13:52;25.50;55.30
210;DHT22;90;48.810;9.120;2022-10-17T15:16:22;25.50;55.20
210;DHT22;90;48.810;9.120;2022-10-17T15:18:50;25.40;55.90
210;DHT22;90;48.810;9.120;2022-10-17T15:21:19;25.40;56.10
210;DHT22;90;48.810;9.120;2022-10-17T15:23:46;25.30;55.80
210;DHT22;90;48.810;9.120;2022-10-17T15:26:15;25.20;56.80
210;DHT22;90;48.810;9.120;2022-10-17T15:28:42;25.10;57.40
210;DHT22;90;48.810;9.120;2022-10-17T15:31:11;25.00;58.40
210;DHT22;90;48.810;9.120;2022-10-17T15:33:40;24.80;59.30
210;DHT22;90;48.810;9.120;2022-10-17T15:36:18;24.60;60.10
210;DHT22;90;48.810;9.120;2022-10-17T15:38:47;24.50;61.10
210;DHT22;90;48.810;9.120;2022-10-17T15:41:14;24.30;62.50
210;DHT22;90;48.810;9.120;2022-10-17T15:43:41;24.20;63.60
210;DHT22;90;48.810;9.120;2022-10-17T15:46:11;24.10;64.50
210;DHT22;90;48.810;9.120;2022-10-17T15:48:40;24.00;66.40
210;DHT22;90;48.810;9.120;2022-10-17T15:51:08;23.80;67.50
210;DHT22;90;48.810;9.120;2022-10-17T15:53:35;23.70;67.60
210;DHT22;90;48.810;9.120;2022-10-17T15:56:03;23.70;68.00
210;DHT22;90;48.810;9.120;2022-10-17T15:58:34;23.60;68.60
210;DHT22;90;48.810;9.120;2022-10-17T16:01:04;23.50;69.20
210;DHT22;90;48.810;9.120;2022-10-17T16:03:32;23.40;69.40
210;DHT22;90;48.810;9.120;2022-10-17T16:06:01;23.30;69.40
210;DHT22;90;48.810;9.120;2022-10-17T16:08:28;23.30;69.50
210;DHT22;90;48.810;9.120;2022-10-17T16:10:55;23.20;69.90
210;DHT22;90;48.810;9.120;2022-10-17T16:13:23;23.10;70.30
210;DHT22;90;48.810;9.120;2022-10-17T16:15:50;23.00;70.90
210;DHT22;90;48.810;9.120;2022-10-17T16:18:17;22.90;71.20
210;DHT22;90;48.810;9.120;2022-10-17T16:20:46;22.90;71.50
210;DHT22;90;48.810;9.120;2022-10-17T16:23:14;22.80;71.80
210;DHT22;90;48.810;9.120;2022-10-17T16:25:41;22.70;71.90
210;DHT22;90;48.810;9.120;2022-10-17T16:28:08;22.60;72.00
210;DHT22;90;48.810;9.120;2022-10-17T16:30:41;22.60;72.30
210;DHT22;90;48.810;9.120;2022-10-17T16:33:10;22.50;72.60
210;DHT22;90;48.810;9.120;2022-10-17T16:35:38;22.40;72.90
210;DHT22;90;48.810;9.120;2022-10-17T16:38:05;22.30;73.40
210;DHT22;90;48.810;9.120;2022-10-17T16:40:37;22.10;73.90
210;DHT22;90;48.810;9.120;2022-10-17T16:43:05;22.10;73.80
210;DHT22;90;48.810;9.120;2022-10-17T16:45:32;22.00;74.20
210;DHT22;90;48.810;9.120;2022-10-17T16:47:59;22.00;73.50
210;DHT22;90;48.810;9.120;2022-10-17T16:50:26;21.90;73.30
210;DHT22;90;48.810;9.120;2022-10-17T16:52:55;21.70;74.00
210;DHT22;90;48.810;9.120;2022-10-17T16:55:22;21.50;74.30
210;DHT22;90;48.810;9.120;2022-10-17T16:57:51;21.40;75.20
210;DHT22;90;48.810;9.120;2022-10-17T17:00:18;21.20;76.10
210;DHT22;90;48.810;9.120;2022-10-17T17:02:47;21.10;76.50
210;DHT22;90;48.810;9.120;2022-10-17T17:05:14;20.90;77.30
210;DHT22;90;48.810;9.120;2022-10-17T17:07:42;20.70;78.00
210;DHT22;90;48.810;9.120;2022-10-17T17:10:09;20.60;78.10
210;DHT22;90;48.810;9.120;2022-10-17T17:12:36;20.40;78.20
210;DHT22;90;48.810;9.120;2022-10-17T17:15:05;20.30;78.40
210;DHT22;90;48.810;9.120;2022-10-17T17:17:35;20.20;78.70
210;DHT22;90;48.810;9.120;2022-10-17T17:20:02;20.20;78.70
210;DHT22;90;48.810;9.120;2022-10-17T17:22:29;20.00;79.10
210;DHT22;90;48.810;9.120;2022-10-17T17:24:56;20.00;79.30